sensor_id;sensor_type;location;lat;lon;timestamp;P1;durP1;ratioP1;P2;durP2;ratioP2
64061;SDS011;50308;47.438;-1.528;2024-02-21T00:00:18;7.15;;;5.32;;
64061;SDS011;50308;47.438;-1.528;2024-02-21T00:02:44;18.25;;;12.63;;
64061;SDS011;50308;47.438;-1.528;2024-02-21T00:05:10;7.40;;;4.85;;
64061;SDS011;50308;47.438;-1.528;2024-02-21T00:07:36;6.78;;;4.03;;
64061;SDS011;50308;47.438;-1.528;2024-02-21T00:10:01;7.30;;;4.22;;
64061;SDS011;50308;47.438;-1.528;2024-02-21T00:12:28;7.22;;;4.45;;
64061;SDS011;50308;47.438;-1.528;2024-02-21T00:14:54;12.43;;;9.75;;
64061;SDS011;50308;47.438;-1.528;2024-02-21T00:17:19;8.65;;;5.85;;
64061;SDS011;50308;47.438;-1.528;2024-02-21T00:19:45;4.93;;;3.97;;
64061;SDS011;50308;47.438;-1.528;2024-02-21T00:22:10;5.10;;;3.92;;
64061;SDS011;50308;47.438;-1.528;2024-02-21T00:24:36;3.88;;;3.47;;
64061;SDS011;50308;47.438;-1.528;2024-02-21T00:27:02;4.55;;;3.40;;
64061;SDS011;50308;47.438;-1.528;2024-02-21T00:29:28;7.63;;;6.05;;
64061;SDS011;50308;47.438;-1.528;2024-02-21T00:31:54;5.82;;;4.28;;
64061;SDS011;50308;47.438;-1.528;2024-02-21T00:34:19;8.70;;;6.43;;
64061;SDS011;50308;47.438;-1.528;2024-02-21T00:36:45;10.60;;;8.35;;
64061;SDS011;50308;47.438;-1.528;2024-02-21T00:39:11;5.72;;;4.00;;
64061;SDS011;50308;47.438;-1.528;2024-02-21T00:41:36;6.30;;;4.93;;
64061;SDS011;50308;47.438;-1.528;2024-02-21T00:44:02;5.05;;;4.28;;
64061;SDS011;50308;47.438;-1.528;2024-02-21T00:46:30;5.05;;;4.05;;
64061;SDS011;50308;47.438;-1.528;2024-02-21T00:48:56;4.00;;;3.20;;
64061;SDS011;50308;47.438;-1.528;2024-02-21T00:51:22;4.32;;;2.80;;
64061;SDS011;50308;47.438;-1.528;2024-02-21T00:53:47;3.30;;;2.85;;
64061;SDS011;50308;47.438;-1.528;2024-02-21T00:56:13;5.25;;;3.40;;
64061;SDS011;50308;47.438;-1.528;2024-02-21T00:58:39;3.55;;;3.25;;
64061;SDS011;50308;47.438;-1.528;2024-02-21T01:01:04;3.47;;;2.70;;
64061;SDS011;50308;47.438;-1.528;2024-02-21T01:03:30;5.30;;;3.20;;
64061;SDS011;50308;47.438;-1.528;2024-02-21T01:05:55;2.95;;;2.60;;
64061;SDS011;50308;47.438;-1.528;2024-02-21T01:08:21;4.55;;;4.00;;
64061;SDS011;50308;47.438;-1.528;2024-02-21T01:10:47;4.97;;;3.72;;
64061;SDS011;50308;47.438;-1.528;2024-02-21T01:13:12;4.00;;;3.42;;
64061;SDS011;50308;47.438;-1.528;2024-02-21T01:15:38;3.70;;;2.50;;
64061;SDS011;50308;47.438;-1.528;2024-02-21T01:18:04;4.85;;;3.50;;
64061;SDS011;50308;47.438;-1.528;2024-02-21T01:20:30;6.00;;;4.63;;
64061;SDS011;50308;47.438;-1.528;2024-02-21T01:22:55;6.53;;;5.47;;
64061;SDS011;50308;47.438;-1.528;2024-02-21T01:25:21;3.72;;;3.20;;
64061;SDS011;50308;47.438;-1.528;2024-02-21T01:27:47;6.07;;;4.68;;
64061;SDS011;50308;47.438;-1.528;2024-02-21T01:30:12;4.70;;;3.35;;
64061;SDS011;50308;47.438;-1.528;2024-02-21T01:32:38;6.38;;;3.88;;
64061;SDS011;50308;47.438;-1.528;2024-02-21T01:35:04;6.32;;;4.28;;
64061;SDS011;50308;47.438;-1.528;2024-02-21T01:37:30;7.63;;;5.70;;
64061;SDS011;50308;47.438;-1.528;2024-02-21T01:39:55;3.72;;;3.08;;
64061;SDS011;50308;47.438;-1.528;2024-02-21T01:42:21;6.18;;;4.40;;
64061;SDS011;50308;47.438;-1.528;2024-02-21T01:44:46;3.03;;;2.50;;
64061;SDS011;50308;47.438;-1.528;2024-02-21T01:47:12;3.17;;;2.55;;
64061;SDS011;50308;47.438;-1.528;2024-02-21T01:49:40;18.42;;;14.05;;
64061;SDS011;50308;47.438;-1.528;2024-02-21T01:52:06;5.80;;;3.70;;
64061;SDS011;50308;47.438;-1.528;2024-02-21T01:54:33;3.80;;;2.85;;
64061;SDS011;50308;47.438;-1.528;2024-02-21T01:56:59;4.72;;;3.47;;
64061;SDS011;50308;47.438;-1.528;2024-02-21T01:59:26;4.47;;;3.05;;
64061;SDS011;50308;47.438;-1.528;2024-02-21T02:01:51;5.75;;;4.63;;
64061;SDS011;50308;47.438;-1.528;2024-02-21T02:04:18;3.00;;;2.45;;
64061;SDS011;50308;47.438;-1.528;2024-02-21T02:06:45;4.40;;;3.22;;
64061;SDS011;50308;47.438;-1.528;2024-02-21T02:09:11;4.60;;;3.10;;
64061;SDS011;50308;47.438;-1.528;2024-02-21T02:11:37;3.70;;;2.55;;
64061;SDS011;50308;47.438;-1.528;2024-02-21T02:14:03;7.20;;;3.92;;
64061;SDS011;50308;47.438;-1.528;2024-02-21T02:16:28;10.05;;;5.63;;
64061;SDS011;50308;47.438;-1.528;2024-02-21T02:18:54;7.03;;;4.30;;
64061;SDS011;50308;47.438;-1.528;2024-02-21T02:21:26;12.75;;;6.68;;
64061;SDS011;50308;47.438;-1.528;2024-02-21T02:23:54;8.52;;;4.40;;
64061;SDS011;50308;47.438;-1.528;2024-02-21T02:26:20;12.13;;;6.65;;
64061;SDS011;50308;47.438;-1.528;2024-02-21T02:28:46;14.43;;;7.43;;
64061;SDS011;50308;47.438;-1.528;2024-02-21T02:31:11;6.80;;;3.83;;
64061;SDS011;50308;47.438;-1.528;2024-02-21T02:33:37;5.00;;;2.80;;
64061;SDS011;50308;47.438;-1.528;2024-02-21T02:36:03;5.60;;;3.80;;
64061;SDS011;50308;47.438;-1.528;2024-02-21T02:38:29;5.85;;;2.60;;
64061;SDS011;50308;47.438;-1.528;2024-02-21T02:40:54;4.72;;;2.72;;
64061;SDS011;50308;47.438;-1.528;2024-02-21T02:43:20;4.93;;;2.53;;
64061;SDS011;50308;47.438;-1.528;2024-02-21T02:45:45;3.97;;;2.00;;
64061;SDS011;50308;47.438;-1.528;2024-02-21T02:48:11;3.20;;;1.77;;
64061;SDS011;50308;47.438;-1.528;2024-02-21T02:50:37;3.40;;;1.88;;
64061;SDS011;50308;47.438;-1.528;2024-02-21T02:53:02;3.53;;;2.03;;
64061;SDS011;50308;47.438;-1.528;2024-02-21T02:55:28;2.40;;;1.20;;
64061;SDS011;50308;47.438;-1.528;2024-02-21T02:57:54;3.13;;;1.30;;
64061;SDS011;50308;47.438;-1.528;2024-02-21T03:00:20;2.13;;;1.33;;
64061;SDS011;50308;47.438;-1.528;2024-02-21T03:02:48;2.42;;;1.52;;
64061;SDS011;50308;47.438;-1.528;2024-02-21T03:05:20;4.93;;;1.67;;
64061;SDS011;50308;47.438;-1.528;2024-02-21T03:07:47;1.95;;;1.05;;
64061;SDS011;50308;47.438;-1.528;2024-02-21T03:10:14;1.55;;;1.15;;
64061;SDS011;50308;47.438;-1.528;2024-02-21T03:12:42;1.70;;;1.00;;
64061;SDS011;50308;47.438;-1.528;2024-02-21T03:15:08;2.53;;;1.05;;
64061;SDS011;50308;47.438;-1.528;2024-02-21T03:17:34;1.50;;;0.98;;
64061;SDS011;50308;47.438;-1.528;2024-02-21T03:20:01;1.92;;;0.90;;
64061;SDS011;50308;47.438;-1.528;2024-02-21T03:22:30;1.27;;;0.90;;
64061;SDS011;50308;47.438;-1.528;2024-02-21T03:24:56;1.38;;;0.70;;
64061;SDS011;50308;47.438;-1.528;2024-02-21T03:27:22;1.73;;;0.80;;
64061;SDS011;50308;47.438;-1.528;2024-02-21T03:29:47;3.58;;;1.20;;
64061;SDS011;50308;47.438;-1.528;2024-02-21T03:32:13;1.05;;;0.70;;
64061;SDS011;50308;47.438;-1.528;2024-02-21T03:34:38;1.42;;;0.70;;
64061;SDS011;50308;47.438;-1.528;2024-02-21T03:37:04;2.55;;;0.80;;
64061;SDS011;50308;47.438;-1.528;2024-02-21T03:39:33;0.75;;;0.57;;
64061;SDS011;50308;47.438;-1.528;2024-02-21T03:41:59;2.22;;;0.80;;
64061;SDS011;50308;47.438;-1.528;2024-02-21T03:46:55;1.52;;;0.73;;
64061;SDS011;50308;47.438;-1.528;2024-02-21T03:49:21;1.55;;;0.80;;
64061;SDS011;50308;47.438;-1.528;2024-02-21T03:51:47;1.00;;;0.55;;
64061;SDS011;50308;47.438;-1.528;2024-02-21T03:54:13;2.17;;;0.73;;
64061;SDS011;50308;47.438;-1.528;2024-02-21T03:56:38;1.83;;;0.80;;
64061;SDS011;50308;47.438;-1.528;2024-02-21T03:59:05;1.70;;;0.80;;
64061;SDS011;50308;47.438;-1.528;2024-02-21T04:01:31;2.25;;;0.75;;
64061;SDS011;50308;47.438;-1.528;2024-02-21T04:03:57;4.30;;;1.98;;
64061;SDS011;50308;47.438;-1.528;2024-02-21T04:06:23;2.63;;;1.48;;
64061;SDS011;50308;47.438;-1.528;2024-02-21T04:08:48;2.25;;;1.58;;
64061;SDS011;50308;47.438;-1.528;2024-02-21T04:11:14;2.38;;;1.35;;
64061;SDS011;50308;47.438;-1.528;2024-02-21T04:13:39;3.72;;;1.35;;
64061;SDS011;50308;47.438;-1.528;2024-02-21T04:16:05;7.22;;;2.97;;
64061;SDS011;50308;47.438;-1.528;2024-02-21T04:18:31;4.35;;;2.05;;
64061;SDS011;50308;47.438;-1.528;2024-02-21T04:20:56;6.45;;;3.05;;
64061;SDS011;50308;47.438;-1.528;2024-02-21T04:23:22;5.32;;;2.97;;
64061;SDS011;50308;47.438;-1.528;2024-02-21T04:25:48;3.22;;;2.10;;
64061;SDS011;50308;47.438;-1.528;2024-02-21T04:28:13;4.68;;;2.63;;
64061;SDS011;50308;47.438;-1.528;2024-02-21T04:30:39;3.88;;;2.40;;
64061;SDS011;50308;47.438;-1.528;2024-02-21T04:33:05;4.00;;;1.90;;
64061;SDS011;50308;47.438;-1.528;2024-02-21T04:35:30;4.95;;;2.00;;
64061;SDS011;50308;47.438;-1.528;2024-02-21T04:37:56;3.83;;;2.13;;
64061;SDS011;50308;47.438;-1.528;2024-02-21T04:40:21;2.22;;;1.40;;
64061;SDS011;50308;47.438;-1.528;2024-02-21T04:42:47;3.72;;;1.75;;
64061;SDS011;50308;47.438;-1.528;2024-02-21T04:45:13;3.33;;;1.63;;
64061;SDS011;50308;47.438;-1.528;2024-02-21T04:47:38;6.32;;;2.92;;
64061;SDS011;50308;47.438;-1.528;2024-02-21T04:50:04;3.45;;;2.05;;
64061;SDS011;50308;47.438;-1.528;2024-02-21T04:52:31;3.35;;;2.45;;
64061;SDS011;50308;47.438;-1.528;2024-02-21T04:54:56;2.92;;;1.70;;
64061;SDS011;50308;47.438;-1.528;2024-02-21T04:57:22;4.60;;;2.15;;
64061;SDS011;50308;47.438;-1.528;2024-02-21T04:59:47;2.58;;;2.00;;
64061;SDS011;50308;47.438;-1.528;2024-02-21T05:02:13;3.55;;;2.00;;
64061;SDS011;50308;47.438;-1.528;2024-02-21T05:04:39;3.05;;;1.60;;
64061;SDS011;50308;47.438;-1.528;2024-02-21T05:07:06;4.43;;;2.85;;
64061;SDS011;50308;47.438;-1.528;2024-02-21T05:09:32;2.63;;;1.92;;
64061;SDS011;50308;47.438;-1.528;2024-02-21T05:11:58;3.45;;;2.03;;
64061;SDS011;50308;47.438;-1.528;2024-02-21T05:14:24;3.85;;;1.90;;
64061;SDS011;50308;47.438;-1.528;2024-02-21T05:16:53;2.47;;;1.88;;
64061;SDS011;50308;47.438;-1.528;2024-02-21T05:19:19;2.95;;;1.85;;
64061;SDS011;50308;47.438;-1.528;2024-02-21T05:21:44;3.17;;;1.80;;
64061;SDS011;50308;47.438;-1.528;2024-02-21T05:24:11;4.40;;;2.83;;
64061;SDS011;50308;47.438;-1.528;2024-02-21T05:26:36;2.78;;;1.85;;
64061;SDS011;50308;47.438;-1.528;2024-02-21T05:29:03;3.05;;;1.90;;
64061;SDS011;50308;47.438;-1.528;2024-02-21T05:34:18;3.45;;;2.33;;
64061;SDS011;50308;47.438;-1.528;2024-02-21T05:36:44;2.55;;;2.05;;
64061;SDS011;50308;47.438;-1.528;2024-02-21T05:39:10;2.63;;;1.88;;
64061;SDS011;50308;47.438;-1.528;2024-02-21T05:41:35;3.42;;;2.05;;
64061;SDS011;50308;47.438;-1.528;2024-02-21T05:44:01;5.13;;;3.38;;
64061;SDS011;50308;47.438;-1.528;2024-02-21T05:46:27;4.05;;;2.67;;
64061;SDS011;50308;47.438;-1.528;2024-02-21T05:48:52;5.72;;;2.13;;
64061;SDS011;50308;47.438;-1.528;2024-02-21T05:51:18;4.07;;;2.45;;
64061;SDS011;50308;47.438;-1.528;2024-02-21T05:53:44;2.70;;;1.85;;
64061;SDS011;50308;47.438;-1.528;2024-02-21T05:56:10;3.47;;;2.15;;
64061;SDS011;50308;47.438;-1.528;2024-02-21T05:58:37;3.35;;;2.20;;
64061;SDS011;50308;47.438;-1.528;2024-02-21T06:01:03;3.47;;;2.08;;
64061;SDS011;50308;47.438;-1.528;2024-02-21T06:03:29;3.35;;;2.30;;
64061;SDS011;50308;47.438;-1.528;2024-02-21T06:05:55;4.68;;;2.67;;
64061;SDS011;50308;47.438;-1.528;2024-02-21T06:08:21;2.72;;;2.40;;
64061;SDS011;50308;47.438;-1.528;2024-02-21T06:10:46;3.15;;;2.40;;
64061;SDS011;50308;47.438;-1.528;2024-02-21T06:13:13;3.20;;;2.20;;
64061;SDS011;50308;47.438;-1.528;2024-02-21T06:15:39;5.82;;;3.90;;
64061;SDS011;50308;47.438;-1.528;2024-02-21T06:18:05;4.18;;;2.53;;
64061;SDS011;50308;47.438;-1.528;2024-02-21T06:20:31;5.57;;;3.22;;
64061;SDS011;50308;47.438;-1.528;2024-02-21T06:22:56;4.68;;;2.88;;
64061;SDS011;50308;47.438;-1.528;2024-02-21T06:25:22;4.25;;;2.75;;
64061;SDS011;50308;47.438;-1.528;2024-02-21T06:27:48;6.10;;;2.72;;
64061;SDS011;50308;47.438;-1.528;2024-02-21T06:30:13;8.65;;;3.05;;
64061;SDS011;50308;47.438;-1.528;2024-02-21T06:32:39;8.70;;;2.72;;
64061;SDS011;50308;47.438;-1.528;2024-02-21T06:35:05;4.22;;;2.38;;
64061;SDS011;50308;47.438;-1.528;2024-02-21T06:37:31;4.25;;;3.03;;
64061;SDS011;50308;47.438;-1.528;2024-02-21T06:39:57;4.28;;;2.88;;
64061;SDS011;50308;47.438;-1.528;2024-02-21T06:42:26;3.80;;;3.00;;
64061;SDS011;50308;47.438;-1.528;2024-02-21T06:44:52;5.00;;;2.45;;
64061;SDS011;50308;47.438;-1.528;2024-02-21T06:47:17;3.95;;;2.83;;
64061;SDS011;50308;47.438;-1.528;2024-02-21T06:49:43;4.43;;;2.53;;
64061;SDS011;50308;47.438;-1.528;2024-02-21T06:52:13;3.92;;;2.65;;
64061;SDS011;50308;47.438;-1.528;2024-02-21T06:54:42;4.53;;;2.85;;
64061;SDS011;50308;47.438;-1.528;2024-02-21T06:57:07;2.80;;;2.30;;
64061;SDS011;50308;47.438;-1.528;2024-02-21T06:59:33;4.03;;;2.40;;
64061;SDS011;50308;47.438;-1.528;2024-02-21T07:01:59;5.15;;;3.00;;
64061;SDS011;50308;47.438;-1.528;2024-02-21T07:04:25;4.95;;;2.55;;
64061;SDS011;50308;47.438;-1.528;2024-02-21T07:06:52;4.45;;;2.63;;
64061;SDS011;50308;47.438;-1.528;2024-02-21T07:09:17;5.78;;;2.78;;
64061;SDS011;50308;47.438;-1.528;2024-02-21T07:11:43;4.03;;;2.72;;
64061;SDS011;50308;47.438;-1.528;2024-02-21T07:14:09;5.15;;;2.72;;
64061;SDS011;50308;47.438;-1.528;2024-02-21T07:16:34;6.55;;;3.00;;
64061;SDS011;50308;47.438;-1.528;2024-02-21T07:19:00;3.88;;;2.63;;
64061;SDS011;50308;47.438;-1.528;2024-02-21T07:21:26;6.38;;;3.40;;
64061;SDS011;50308;47.438;-1.528;2024-02-21T07:23:51;7.15;;;3.83;;
64061;SDS011;50308;47.438;-1.528;2024-02-21T07:26:17;6.03;;;2.97;;
64061;SDS011;50308;47.438;-1.528;2024-02-21T07:28:42;5.00;;;2.85;;
64061;SDS011;50308;47.438;-1.528;2024-02-21T07:31:08;5.47;;;3.00;;
64061;SDS011;50308;47.438;-1.528;2024-02-21T07:33:34;4.45;;;2.80;;
64061;SDS011;50308;47.438;-1.528;2024-02-21T07:36:00;4.38;;;2.80;;
64061;SDS011;50308;47.438;-1.528;2024-02-21T07:38:26;5.63;;;2.80;;
64061;SDS011;50308;47.438;-1.528;2024-02-21T07:40:52;5.20;;;3.10;;
64061;SDS011;50308;47.438;-1.528;2024-02-21T07:43:17;5.10;;;2.75;;
64061;SDS011;50308;47.438;-1.528;2024-02-21T07:45:43;4.28;;;2.72;;
64061;SDS011;50308;47.438;-1.528;2024-02-21T07:48:09;4.97;;;3.45;;
64061;SDS011;50308;47.438;-1.528;2024-02-21T07:50:34;4.25;;;2.80;;
64061;SDS011;50308;47.438;-1.528;2024-02-21T07:53:00;6.95;;;3.20;;
64061;SDS011;50308;47.438;-1.528;2024-02-21T07:55:26;5.78;;;3.80;;
64061;SDS011;50308;47.438;-1.528;2024-02-21T07:57:51;7.28;;;3.17;;
64061;SDS011;50308;47.438;-1.528;2024-02-21T08:00:17;4.53;;;3.47;;
64061;SDS011;50308;47.438;-1.528;2024-02-21T08:02:50;5.80;;;2.90;;
64061;SDS011;50308;47.438;-1.528;2024-02-21T08:05:16;6.13;;;3.20;;
64061;SDS011;50308;47.438;-1.528;2024-02-21T08:07:42;4.70;;;3.08;;
64061;SDS011;50308;47.438;-1.528;2024-02-21T08:10:07;5.47;;;2.60;;
64061;SDS011;50308;47.438;-1.528;2024-02-21T08:12:33;6.50;;;3.50;;
64061;SDS011;50308;47.438;-1.528;2024-02-21T08:15:00;6.20;;;3.17;;
64061;SDS011;50308;47.438;-1.528;2024-02-21T08:17:26;5.57;;;2.80;;
64061;SDS011;50308;47.438;-1.528;2024-02-21T08:19:51;7.50;;;3.38;;
64061;SDS011;50308;47.438;-1.528;2024-02-21T08:22:17;5.13;;;3.05;;
64061;SDS011;50308;47.438;-1.528;2024-02-21T08:24:43;4.72;;;2.90;;
64061;SDS011;50308;47.438;-1.528;2024-02-21T08:27:08;8.27;;;4.40;;
64061;SDS011;50308;47.438;-1.528;2024-02-21T08:29:34;7.63;;;4.40;;
64061;SDS011;50308;47.438;-1.528;2024-02-21T08:32:00;8.20;;;4.07;;
64061;SDS011;50308;47.438;-1.528;2024-02-21T08:34:26;6.75;;;3.30;;
64061;SDS011;50308;47.438;-1.528;2024-02-21T08:36:51;6.90;;;3.25;;
64061;SDS011;50308;47.438;-1.528;2024-02-21T08:39:17;8.18;;;5.40;;
64061;SDS011;50308;47.438;-1.528;2024-02-21T08:41:42;6.55;;;3.67;;
64061;SDS011;50308;47.438;-1.528;2024-02-21T08:44:08;6.03;;;3.80;;
64061;SDS011;50308;47.438;-1.528;2024-02-21T08:46:34;7.35;;;4.80;;
64061;SDS011;50308;47.438;-1.528;2024-02-21T08:49:03;5.88;;;3.50;;
64061;SDS011;50308;47.438;-1.528;2024-02-21T08:51:28;7.15;;;4.10;;
64061;SDS011;50308;47.438;-1.528;2024-02-21T08:53:54;8.05;;;3.75;;
64061;SDS011;50308;47.438;-1.528;2024-02-21T08:56:20;6.90;;;3.55;;
64061;SDS011;50308;47.438;-1.528;2024-02-21T08:58:46;5.60;;;3.55;;
64061;SDS011;50308;47.438;-1.528;2024-02-21T09:01:12;8.82;;;3.50;;
64061;SDS011;50308;47.438;-1.528;2024-02-21T09:03:37;7.75;;;3.83;;
64061;SDS011;50308;47.438;-1.528;2024-02-21T09:06:04;4.45;;;3.15;;
64061;SDS011;50308;47.438;-1.528;2024-02-21T09:08:31;6.90;;;3.28;;
64061;SDS011;50308;47.438;-1.528;2024-02-21T09:10:57;6.72;;;3.10;;
64061;SDS011;50308;47.438;-1.528;2024-02-21T09:13:23;7.60;;;3.33;;
64061;SDS011;50308;47.438;-1.528;2024-02-21T09:15:49;6.55;;;3.10;;
64061;SDS011;50308;47.438;-1.528;2024-02-21T09:18:15;9.20;;;3.22;;
64061;SDS011;50308;47.438;-1.528;2024-02-21T09:20:42;8.13;;;3.50;;
64061;SDS011;50308;47.438;-1.528;2024-02-21T09:23:08;5.43;;;3.22;;
64061;SDS011;50308;47.438;-1.528;2024-02-21T09:25:33;7.32;;;3.28;;
64061;SDS011;50308;47.438;-1.528;2024-02-21T09:28:00;5.78;;;3.00;;
64061;SDS011;50308;47.438;-1.528;2024-02-21T09:30:28;4.95;;;2.92;;
64061;SDS011;50308;47.438;-1.528;2024-02-21T09:32:53;7.18;;;3.35;;
64061;SDS011;50308;47.438;-1.528;2024-02-21T09:35:19;6.65;;;3.15;;
64061;SDS011;50308;47.438;-1.528;2024-02-21T09:37:47;5.78;;;2.92;;
64061;SDS011;50308;47.438;-1.528;2024-02-21T09:40:14;4.47;;;2.88;;
64061;SDS011;50308;47.438;-1.528;2024-02-21T09:42:42;7.18;;;3.00;;
64061;SDS011;50308;47.438;-1.528;2024-02-21T09:45:10;6.47;;;3.53;;
64061;SDS011;50308;47.438;-1.528;2024-02-21T09:50:50;6.10;;;2.97;;
64061;SDS011;50308;47.438;-1.528;2024-02-21T09:53:16;7.00;;;3.13;;
64061;SDS011;50308;47.438;-1.528;2024-02-21T09:55:44;7.25;;;3.75;;
64061;SDS011;50308;47.438;-1.528;2024-02-21T09:58:11;8.73;;;3.80;;
64061;SDS011;50308;47.438;-1.528;2024-02-21T10:00:38;5.70;;;3.33;;
64061;SDS011;50308;47.438;-1.528;2024-02-21T10:03:03;7.38;;;3.42;;
64061;SDS011;50308;47.438;-1.528;2024-02-21T10:05:35;9.23;;;3.88;;
64061;SDS011;50308;47.438;-1.528;2024-02-21T10:08:02;6.45;;;3.20;;
64061;SDS011;50308;47.438;-1.528;2024-02-21T10:10:28;7.88;;;4.22;;
64061;SDS011;50308;47.438;-1.528;2024-02-21T10:12:55;8.93;;;4.40;;
64061;SDS011;50308;47.438;-1.528;2024-02-21T10:15:22;8.80;;;3.75;;
64061;SDS011;50308;47.438;-1.528;2024-02-21T10:17:58;11.88;;;5.50;;
64061;SDS011;50308;47.438;-1.528;2024-02-21T10:20:25;20.92;;;8.48;;
64061;SDS011;50308;47.438;-1.528;2024-02-21T10:23:01;7.93;;;4.57;;
64061;SDS011;50308;47.438;-1.528;2024-02-21T10:25:37;6.82;;;3.95;;
64061;SDS011;50308;47.438;-1.528;2024-02-21T10:28:13;9.32;;;4.82;;
64061;SDS011;50308;47.438;-1.528;2024-02-21T10:30:50;10.55;;;4.40;;
64061;SDS011;50308;47.438;-1.528;2024-02-21T10:33:17;6.93;;;4.13;;
64061;SDS011;50308;47.438;-1.528;2024-02-21T10:35:45;7.60;;;3.63;;
64061;SDS011;50308;47.438;-1.528;2024-02-21T10:38:12;11.68;;;5.05;;
64061;SDS011;50308;47.438;-1.528;2024-02-21T10:40:38;7.10;;;4.15;;
64061;SDS011;50308;47.438;-1.528;2024-02-21T10:43:03;5.53;;;3.72;;
64061;SDS011;50308;47.438;-1.528;2024-02-21T10:45:36;8.90;;;3.88;;
64061;SDS011;50308;47.438;-1.528;2024-02-21T10:54:00;8.65;;;4.43;;
64061;SDS011;50308;47.438;-1.528;2024-02-21T10:56:11;9.48;;;4.53;;
64061;SDS011;50308;47.438;-1.528;2024-02-21T10:58:41;12.40;;;6.40;;
64061;SDS011;50308;47.438;-1.528;2024-02-21T11:01:09;13.55;;;8.50;;
64061;SDS011;50308;47.438;-1.528;2024-02-21T11:03:35;13.43;;;6.30;;
64061;SDS011;50308;47.438;-1.528;2024-02-21T11:06:02;9.38;;;5.60;;
64061;SDS011;50308;47.438;-1.528;2024-02-21T11:08:30;11.50;;;5.70;;
64061;SDS011;50308;47.438;-1.528;2024-02-21T11:10:59;10.90;;;5.18;;
64061;SDS011;50308;47.438;-1.528;2024-02-21T11:13:37;7.53;;;4.78;;
64061;SDS011;50308;47.438;-1.528;2024-02-21T11:16:07;7.30;;;4.50;;
64061;SDS011;50308;47.438;-1.528;2024-02-21T11:18:35;8.35;;;4.05;;
64061;SDS011;50308;47.438;-1.528;2024-02-21T11:21:01;8.85;;;4.57;;
64061;SDS011;50308;47.438;-1.528;2024-02-21T11:23:28;9.65;;;4.32;;
64061;SDS011;50308;47.438;-1.528;2024-02-21T11:26:03;7.30;;;4.15;;
64061;SDS011;50308;47.438;-1.528;2024-02-21T11:28:30;9.13;;;3.90;;
64061;SDS011;50308;47.438;-1.528;2024-02-21T11:31:04;8.02;;;3.78;;
64061;SDS011;50308;47.438;-1.528;2024-02-21T11:33:33;6.43;;;3.70;;
64061;SDS011;50308;47.438;-1.528;2024-02-21T11:35:59;8.18;;;3.33;;
64061;SDS011;50308;47.438;-1.528;2024-02-21T11:38:25;9.57;;;3.60;;
64061;SDS011;50308;47.438;-1.528;2024-02-21T11:40:50;5.90;;;3.35;;
64061;SDS011;50308;47.438;-1.528;2024-02-21T11:43:16;6.85;;;3.72;;
64061;SDS011;50308;47.438;-1.528;2024-02-21T11:45:42;5.63;;;3.45;;
64061;SDS011;50308;47.438;-1.528;2024-02-21T11:48:08;8.27;;;3.88;;
64061;SDS011;50308;47.438;-1.528;2024-02-21T11:50:36;7.60;;;3.47;;
64061;SDS011;50308;47.438;-1.528;2024-02-21T11:53:04;8.25;;;4.68;;
64061;SDS011;50308;47.438;-1.528;2024-02-21T11:55:30;12.07;;;5.15;;
64061;SDS011;50308;47.438;-1.528;2024-02-21T11:57:56;8.93;;;4.57;;
64061;SDS011;50308;47.438;-1.528;2024-02-21T12:00:22;9.73;;;4.95;;
64061;SDS011;50308;47.438;-1.528;2024-02-21T12:02:49;10.80;;;5.50;;
64061;SDS011;50308;47.438;-1.528;2024-02-21T12:05:16;11.13;;;6.53;;
64061;SDS011;50308;47.438;-1.528;2024-02-21T12:07:43;11.13;;;4.93;;
64061;SDS011;50308;47.438;-1.528;2024-02-21T12:10:09;13.50;;;5.10;;
64061;SDS011;50308;47.438;-1.528;2024-02-21T12:12:36;8.18;;;4.60;;
64061;SDS011;50308;47.438;-1.528;2024-02-21T12:15:03;11.48;;;5.22;;
64061;SDS011;50308;47.438;-1.528;2024-02-21T12:17:35;6.78;;;3.85;;
64061;SDS011;50308;47.438;-1.528;2024-02-21T12:20:02;6.57;;;4.05;;
64061;SDS011;50308;47.438;-1.528;2024-02-21T12:22:37;8.25;;;3.92;;
64061;SDS011;50308;47.438;-1.528;2024-02-21T12:25:24;11.98;;;4.20;;
64061;SDS011;50308;47.438;-1.528;2024-02-21T12:27:51;11.00;;;3.97;;
64061;SDS011;50308;47.438;-1.528;2024-02-21T12:30:17;8.52;;;3.63;;
64061;SDS011;50308;47.438;-1.528;2024-02-21T12:32:44;7.63;;;4.05;;
64061;SDS011;50308;47.438;-1.528;2024-02-21T12:35:10;9.90;;;3.90;;
64061;SDS011;50308;47.438;-1.528;2024-02-21T12:37:36;6.45;;;4.25;;
64061;SDS011;50308;47.438;-1.528;2024-02-21T12:40:03;9.63;;;4.30;;
64061;SDS011;50308;47.438;-1.528;2024-02-21T12:42:31;8.43;;;3.28;;
64061;SDS011;50308;47.438;-1.528;2024-02-21T12:44:58;9.65;;;3.55;;
64061;SDS011;50308;47.438;-1.528;2024-02-21T12:47:24;11.60;;;4.47;;
64061;SDS011;50308;47.438;-1.528;2024-02-21T12:49:51;8.02;;;3.67;;
64061;SDS011;50308;47.438;-1.528;2024-02-21T12:52:17;5.80;;;3.00;;
64061;SDS011;50308;47.438;-1.528;2024-02-21T12:54:43;8.70;;;3.47;;
64061;SDS011;50308;47.438;-1.528;2024-02-21T12:57:09;6.93;;;3.22;;
64061;SDS011;50308;47.438;-1.528;2024-02-21T12:59:35;10.60;;;3.53;;
64061;SDS011;50308;47.438;-1.528;2024-02-21T13:02:01;8.77;;;2.67;;
64061;SDS011;50308;47.438;-1.528;2024-02-21T13:04:26;10.75;;;3.00;;
64061;SDS011;50308;47.438;-1.528;2024-02-21T13:06:52;8.68;;;3.30;;
64061;SDS011;50308;47.438;-1.528;2024-02-21T13:09:18;8.73;;;3.10;;
64061;SDS011;50308;47.438;-1.528;2024-02-21T13:11:43;6.85;;;2.60;;
64061;SDS011;50308;47.438;-1.528;2024-02-21T13:14:11;6.35;;;2.83;;
64061;SDS011;50308;47.438;-1.528;2024-02-21T13:16:37;8.68;;;2.78;;
64061;SDS011;50308;47.438;-1.528;2024-02-21T13:19:06;5.22;;;2.50;;
64061;SDS011;50308;47.438;-1.528;2024-02-21T13:21:33;5.45;;;2.70;;
64061;SDS011;50308;47.438;-1.528;2024-02-21T13:23:59;5.78;;;2.17;;
64061;SDS011;50308;47.438;-1.528;2024-02-21T13:26:25;7.18;;;2.80;;
64061;SDS011;50308;47.438;-1.528;2024-02-21T13:28:51;5.82;;;2.30;;
64061;SDS011;50308;47.438;-1.528;2024-02-21T13:31:16;6.93;;;2.28;;
64061;SDS011;50308;47.438;-1.528;2024-02-21T13:33:42;8.80;;;2.58;;
64061;SDS011;50308;47.438;-1.528;2024-02-21T13:36:09;7.22;;;2.58;;
64061;SDS011;50308;47.438;-1.528;2024-02-21T13:38:35;9.20;;;2.65;;
64061;SDS011;50308;47.438;-1.528;2024-02-21T13:41:01;7.53;;;3.22;;
64061;SDS011;50308;47.438;-1.528;2024-02-21T13:43:27;7.28;;;2.60;;
64061;SDS011;50308;47.438;-1.528;2024-02-21T13:45:56;7.53;;;2.58;;
64061;SDS011;50308;47.438;-1.528;2024-02-21T13:48:23;6.47;;;2.67;;
64061;SDS011;50308;47.438;-1.528;2024-02-21T13:50:49;9.90;;;2.50;;
64061;SDS011;50308;47.438;-1.528;2024-02-21T13:53:15;8.75;;;3.28;;
64061;SDS011;50308;47.438;-1.528;2024-02-21T13:55:43;7.32;;;3.00;;
64061;SDS011;50308;47.438;-1.528;2024-02-21T13:58:09;7.88;;;3.00;;
64061;SDS011;50308;47.438;-1.528;2024-02-21T14:00:35;7.57;;;2.78;;
64061;SDS011;50308;47.438;-1.528;2024-02-21T14:03:01;9.07;;;2.95;;
64061;SDS011;50308;47.438;-1.528;2024-02-21T14:05:27;7.60;;;2.85;;
64061;SDS011;50308;47.438;-1.528;2024-02-21T14:07:52;5.32;;;2.90;;
64061;SDS011;50308;47.438;-1.528;2024-02-21T14:10:19;7.47;;;2.97;;
64061;SDS011;50308;47.438;-1.528;2024-02-21T14:12:45;6.80;;;3.50;;
64061;SDS011;50308;47.438;-1.528;2024-02-21T14:15:12;10.98;;;4.13;;
64061;SDS011;50308;47.438;-1.528;2024-02-21T14:17:38;19.55;;;9.32;;
64061;SDS011;50308;47.438;-1.528;2024-02-21T14:20:05;24.88;;;12.00;;
64061;SDS011;50308;47.438;-1.528;2024-02-21T14:22:33;47.30;;;21.10;;
64061;SDS011;50308;47.438;-1.528;2024-02-21T14:25:02;40.95;;;17.75;;
64061;SDS011;50308;47.438;-1.528;2024-02-21T14:27:30;70.40;;;29.45;;
64061;SDS011;50308;47.438;-1.528;2024-02-21T14:29:56;54.88;;;24.20;;
64061;SDS011;50308;47.438;-1.528;2024-02-21T14:32:22;44.55;;;19.73;;
64061;SDS011;50308;47.438;-1.528;2024-02-21T14:34:47;38.33;;;17.70;;
64061;SDS011;50308;47.438;-1.528;2024-02-21T14:37:14;30.95;;;15.32;;
64061;SDS011;50308;47.438;-1.528;2024-02-21T14:39:40;36.92;;;17.20;;
64061;SDS011;50308;47.438;-1.528;2024-02-21T14:42:06;31.70;;;14.75;;